Time;durP1;ratioP1;P1;durP2;ratioP2;P2;SDS_P1;SDS_P2;PMS_P1;PMS_P2;Temp;Humidity;BMP_temperature;BMP_pressure;BME280_temperature;BME280_humidity;BME280_pressure;Samples;Min_cycle;Max_cycle;Signal;HPM_P1;HPM_P2
2022/02/20 00:01:19;;;;;;;5.15;1.90;;;4.80;1.00;;;;;;6281433;22;20199;-84
2022/02/20 00:03:46;;;;;;;4.88;2.10;;;4.80;1.00;;;;;;6249842;22;20250;-81
2022/02/20 00:06:13;;;;;;;5.70;2.10;;;4.70;1.00;;;;;;6248180;22;20631;-79
2022/02/20 00:08:40;;;;;;;4.57;1.70;;;4.70;1.00;;;;;;6285348;22;20185;-82
2022/02/20 00:11:08;;;;;;;6.93;2.05;;;4.70;1.00;;;;;;6253677;22;20181;-83
2022/02/20 00:13:36;;;;;;;4.53;1.60;;;4.60;1.00;;;;;;6278466;22;20852;-80
2022/02/20 00:16:03;;;;;;;5.65;2.13;;;4.50;1.00;;;;;;6248200;22;20708;-81
2022/02/20 00:18:30;;;;;;;2.78;1.58;;;4.40;1.00;;;;;;6275245;22;21452;-81
2022/02/20 00:20:56;;;;;;;4.63;2.03;;;4.30;1.00;;;;;;6272959;22;20250;-82
2022/02/20 00:23:23;;;;;;;3.92;1.90;;;4.20;1.00;;;;;;6274148;22;20737;-82
2022/02/20 00:25:50;;;;;;;3.53;1.90;;;4.20;1.00;;;;;;6245575;22;20287;-82
2022/02/20 00:28:18;;;;;;;4.55;2.08;;;4.20;1.00;;;;;;6273352;22;20279;-82
2022/02/20 00:30:45;;;;;;;5.53;2.75;;;4.20;1.00;;;;;;6273619;22;20248;-81
2022/02/20 00:33:13;;;;;;;5.22;2.10;;;4.20;1.00;;;;;;6274194;22;20346;-82
2022/02/20 00:35:40;;;;;;;3.88;1.70;;;4.30;1.00;;;;;;6272236;22;20193;-81
2022/02/20 00:38:08;;;;;;;5.63;1.70;;;4.30;1.00;;;;;;6271562;22;20226;-83
2022/02/20 00:40:35;;;;;;;3.60;1.65;;;4.40;1.00;;;;;;6273608;22;20356;-81
2022/02/20 00:43:02;;;;;;;9.20;2.20;;;4.30;1.00;;;;;;6272106;22;20188;-81
2022/02/20 00:45:31;;;;;;;4.53;2.00;;;4.40;1.00;;;;;;6274127;22;20267;-82
2022/02/20 00:47:58;;;;;;;4.85;1.90;;;4.30;1.00;;;;;;6273895;22;20246;-82
2022/02/20 00:50:26;;;;;;;5.30;1.52;;;4.30;1.00;;;;;;6273070;22;20267;-82
2022/02/20 00:52:53;;;;;;;4.65;2.65;;;4.30;1.00;;;;;;6282055;22;20191;-82
2022/02/20 00:55:20;;;;;;;4.03;2.22;;;4.30;1.00;;;;;;6274787;22;20259;-81
2022/02/20 00:57:47;;;;;;;4.85;2.05;;;4.20;1.00;;;;;;6277788;22;20274;-81
2022/02/20 01:00:15;;;;;;;6.15;2.00;;;4.20;1.00;;;;;;6274943;22;20589;-83
2022/02/20 01:02:44;;;;;;;10.15;5.88;;;4.10;1.00;;;;;;6270526;22;20275;-79
2022/02/20 01:05:11;;;;;;;6.07;2.45;;;4.00;1.00;;;;;;6245410;22;20275;-81
2022/02/20 01:07:38;;;;;;;7.35;2.00;;;3.90;1.00;;;;;;6273489;22;20286;-83
2022/02/20 01:10:07;;;;;;;6.80;2.55;;;3.90;1.00;;;;;;6273544;22;20199;-81
2022/02/20 01:12:34;;;;;;;6.60;2.38;;;3.90;1.00;;;;;;6271530;22;20268;-82
2022/02/20 01:15:01;;;;;;;5.63;2.30;;;3.80;1.00;;;;;;6273116;22;20271;-80
2022/02/20 01:17:28;;;;;;;3.75;1.90;;;3.80;1.00;;;;;;6273662;22;20724;-79
2022/02/20 01:19:56;;;;;;;8.57;2.50;;;3.70;1.00;;;;;;6279517;22;20214;-81
2022/02/20 01:22:23;;;;;;;3.53;2.05;;;3.70;1.00;;;;;;6283163;22;20195;-78
2022/02/20 01:24:50;;;;;;;7.53;2.45;;;3.70;1.00;;;;;;6253954;22;20188;-79
2022/02/20 01:27:17;;;;;;;4.85;2.20;;;3.70;1.00;;;;;;6275405;22;20228;-79
2022/02/20 01:29:43;;;;;;;5.10;2.10;;;3.70;1.00;;;;;;6272810;22;20223;-79
2022/02/20 01:32:10;;;;;;;3.78;2.35;;;3.70;1.00;;;;;;6280950;22;21018;-79
2022/02/20 01:34:37;;;;;;;4.47;1.70;;;3.60;1.00;;;;;;6267370;22;21148;-79
2022/02/20 01:37:05;;;;;;;8.00;2.95;;;3.50;1.00;;;;;;6273217;22;20286;-81
2022/02/20 01:39:32;;;;;;;4.10;2.38;;;3.50;1.00;;;;;;6281072;22;20275;-81
2022/02/20 01:41:59;;;;;;;6.50;2.97;;;3.40;1.00;;;;;;6283239;22;21289;-82
2022/02/20 01:44:26;;;;;;;6.35;2.72;;;3.40;1.00;;;;;;6278276;22;20196;-79
2022/02/20 01:46:53;;;;;;;4.63;2.70;;;3.40;1.00;;;;;;6268495;22;20191;-80
2022/02/20 01:49:21;;;;;;;4.82;2.72;;;3.40;1.00;;;;;;6272283;22;20267;-80
2022/02/20 01:51:48;;;;;;;5.15;3.00;;;3.30;1.00;;;;;;6271678;22;20534;-79
2022/02/20 01:54:16;;;;;;;4.72;3.20;;;3.20;1.00;;;;;;6267972;22;20192;-80
2022/02/20 01:56:44;;;;;;;5.40;3.00;;;3.20;1.00;;;;;;6270860;22;20234;-79
2022/02/20 01:59:10;;;;;;;4.43;2.92;;;3.10;1.00;;;;;;6270764;22;20208;-79
2022/02/20 02:01:37;;;;;;;8.10;2.63;;;3.00;1.00;;;;;;6270086;22;20199;-81
2022/02/20 02:04:05;;;;;;;4.30;2.70;;;3.10;1.00;;;;;;6268793;22;20193;-79
2022/02/20 02:06:32;;;;;;;7.22;3.45;;;3.00;1.00;;;;;;6279528;22;20211;-80
2022/02/20 02:09:00;;;;;;;5.75;3.33;;;3.00;1.00;;;;;;6284837;22;20196;-80
2022/02/20 02:11:30;;;;;;;9.32;3.05;;;3.00;1.00;;;;;;6296430;22;20192;-80
2022/02/20 02:13:56;;;;;;;3.92;2.80;;;3.00;1.00;;;;;;6303846;22;20187;-79
2022/02/20 02:16:23;;;;;;;5.95;2.70;;;3.00;1.00;;;;;;6304631;22;20188;-79
2022/02/20 02:18:50;;;;;;;7.28;3.63;;;2.90;1.00;;;;;;6288824;22;20192;-80
2022/02/20 02:21:17;;;;;;;5.15;3.60;;;2.90;1.00;;;;;;6268162;22;20195;-79
2022/02/20 02:23:45;;;;;;;5.45;3.00;;;2.90;1.00;;;;;;6268997;22;21000;-79
2022/02/20 02:26:13;;;;;;;4.18;3.20;;;2.90;1.00;;;;;;6273241;22;20364;-81
2022/02/20 02:28:40;;;;;;;7.10;3.47;;;2.80;1.00;;;;;;6276565;22;20223;-80
2022/02/20 02:31:07;;;;;;;5.05;3.30;;;2.80;1.00;;;;;;6270658;22;20230;-80
2022/02/20 02:33:35;;;;;;;8.43;3.13;;;2.80;1.00;;;;;;6270004;22;20188;-80
2022/02/20 02:36:04;;;;;;;8.27;2.95;;;2.80;1.00;;;;;;6274200;22;20685;-83
2022/02/20 02:38:32;;;;;;;4.25;3.22;;;2.90;1.00;;;;;;6270033;22;20673;-84
2022/02/20 02:41:04;;;;;;;4.18;3.00;;;2.80;1.00;;;;;;6271395;22;21105;-83
2022/02/20 02:43:31;;;;;;;8.52;3.58;;;2.80;1.00;;;;;;6267770;22;20270;-83
2022/02/20 02:45:58;;;;;;;4.32;3.00;;;2.80;1.00;;;;;;6270503;22;20188;-82
2022/02/20 02:48:25;;;;;;;3.80;2.78;;;2.80;1.00;;;;;;6269646;22;20195;-80
2022/02/20 02:50:53;;;;;;;3.75;2.58;;;2.90;1.00;;;;;;6263679;22;20464;-80
2022/02/20 02:53:20;;;;;;;5.78;2.80;;;2.90;1.00;;;;;;6268225;22;20275;-80
2022/02/20 02:55:47;;;;;;;4.15;2.40;;;2.90;1.00;;;;;;6266489;22;20198;-80
2022/02/20 02:58:18;;;;;;;7.28;2.45;;;2.80;1.00;;;;;;6269095;22;20196;-78
2022/02/20 03:00:45;;;;;;;3.47;2.20;;;2.80;1.00;;;;;;6268637;22;20307;-79
2022/02/20 03:03:12;;;;;;;4.22;2.60;;;2.80;1.00;;;;;;6268090;22;20194;-79
2022/02/20 03:05:39;;;;;;;3.20;2.88;;;2.80;1.00;;;;;;6270157;22;20299;-80
2022/02/20 03:08:06;;;;;;;4.18;2.67;;;2.90;1.00;;;;;;6269922;22;20270;-80
2022/02/20 03:10:33;;;;;;;4.88;3.13;;;2.90;1.00;;;;;;6268284;22;20195;-79
2022/02/20 03:13:00;;;;;;;4.30;2.90;;;2.90;1.00;;;;;;6266249;22;20200;-78
2022/02/20 03:15:28;;;;;;;6.28;3.08;;;2.90;1.00;;;;;;6268546;22;20962;-80
2022/02/20 03:17:55;;;;;;;4.55;3.13;;;2.90;1.00;;;;;;6279497;22;20220;-79
2022/02/20 03:20:21;;;;;;;3.42;2.40;;;2.90;1.00;;;;;;6269508;22;21018;-80
2022/02/20 03:22:48;;;;;;;3.40;3.10;;;2.90;1.00;;;;;;6269494;22;20930;-79
2022/02/20 03:25:17;;;;;;;3.63;3.25;;;2.80;1.00;;;;;;6272428;22;20267;-79
2022/02/20 03:27:44;;;;;;;5.82;3.10;;;2.80;1.00;;;;;;6273129;22;21235;-80
2022/02/20 03:30:11;;;;;;;4.65;2.80;;;2.80;1.00;;;;;;6270957;22;20538;-80
2022/02/20 03:32:40;;;;;;;7.32;3.60;;;2.80;1.00;;;;;;6269687;22;20188;-80
2022/02/20 03:35:08;;;;;;;3.70;3.40;;;2.90;1.00;;;;;;6269495;22;20695;-80
2022/02/20 03:37:35;;;;;;;5.18;3.45;;;2.90;1.00;;;;;;6282567;22;20991;-79
2022/02/20 03:40:02;;;;;;;5.78;3.55;;;2.90;1.00;;;;;;6270330;22;20247;-79
2022/02/20 03:42:28;;;;;;;5.13;3.45;;;2.90;1.00;;;;;;6271579;22;20192;-79
2022/02/20 03:44:55;;;;;;;7.28;3.67;;;2.90;1.00;;;;;;6268802;22;20314;-79
2022/02/20 03:47:21;;;;;;;6.43;3.90;;;2.90;1.00;;;;;;6268631;22;21589;-79
2022/02/20 03:49:50;;;;;;;5.88;3.45;;;2.90;1.00;;;;;;6268464;22;21112;-79
2022/02/20 03:52:16;;;;;;;4.43;3.42;;;2.90;1.00;;;;;;6270630;22;20208;-79
2022/02/20 03:54:43;;;;;;;4.63;3.20;;;2.90;1.00;;;;;;6270278;22;20188;-79
2022/02/20 03:57:10;;;;;;;7.93;3.28;;;3.00;1.00;;;;;;6272356;22;20220;-79
2022/02/20 03:59:37;;;;;;;5.85;3.83;;;3.00;1.00;;;;;;6270678;22;20239;-79
2022/02/20 04:02:04;;;;;;;5.40;3.67;;;2.90;1.00;;;;;;6269660;22;20216;-80
2022/02/20 04:04:31;;;;;;;4.35;3.50;;;3.00;1.00;;;;;;6267327;22;20726;-80
2022/02/20 04:06:59;;;;;;;7.25;5.68;;;3.00;1.00;;;;;;6269873;22;20263;-78
2022/02/20 04:09:26;;;;;;;8.43;7.63;;;3.00;1.00;;;;;;6270056;22;20219;-79
2022/02/20 04:11:53;;;;;;;9.45;8.00;;;3.00;1.00;;;;;;6272589;22;20193;-80
2022/02/20 04:14:19;;;;;;;7.68;6.88;;;3.00;1.00;;;;;;6247812;22;21346;-81
2022/02/20 04:16:46;;;;;;;11.50;7.80;;;3.10;1.00;;;;;;6306950;22;20164;-79
2022/02/20 04:19:15;;;;;;;7.30;6.32;;;3.10;1.00;;;;;;6305644;22;20215;-78
2022/02/20 04:21:42;;;;;;;9.35;5.15;;;3.10;1.00;;;;;;6277614;22;20220;-79
2022/02/20 04:24:10;;;;;;;6.82;5.55;;;3.10;1.00;;;;;;6268206;22;20297;-80
2022/02/20 04:26:36;;;;;;;5.72;5.13;;;3.20;1.00;;;;;;6242871;22;20200;-80
2022/02/20 04:29:03;;;;;;;4.32;3.55;;;3.20;1.00;;;;;;6273475;22;20739;-82
2022/02/20 04:31:30;;;;;;;4.57;3.70;;;3.20;1.00;;;;;;6284800;22;20257;-82
2022/02/20 04:33:57;;;;;;;4.20;3.53;;;3.20;1.00;;;;;;6284653;22;20223;-81
2022/02/20 04:36:24;;;;;;;4.15;3.65;;;3.30;1.00;;;;;;6284143;22;20192;-82
2022/02/20 04:38:51;;;;;;;3.55;3.20;;;3.20;1.00;;;;;;6271267;22;20222;-83
2022/02/20 04:41:21;;;;;;;3.47;3.17;;;3.30;1.00;;;;;;6272202;22;20283;-83
2022/02/20 04:43:48;;;;;;;3.53;2.90;;;3.30;1.00;;;;;;6270340;22;20180;-81
2022/02/20 04:46:15;;;;;;;4.68;3.40;;;3.30;1.00;;;;;;6270242;22;20192;-81
2022/02/20 04:48:41;;;;;;;5.50;3.35;;;3.40;1.00;;;;;;6269434;22;20664;-79
2022/02/20 04:51:08;;;;;;;3.55;2.80;;;3.50;1.00;;;;;;6272095;22;20185;-78
2022/02/20 04:53:35;;;;;;;5.60;3.40;;;3.50;1.00;;;;;;6274984;22;20198;-78
2022/02/20 04:56:01;;;;;;;4.53;3.15;;;3.50;1.00;;;;;;6267630;22;20192;-80
2022/02/20 04:58:29;;;;;;;4.45;3.22;;;3.60;1.00;;;;;;6270395;22;20200;-80
2022/02/20 05:00:56;;;;;;;4.07;2.80;;;3.50;1.00;;;;;;6269288;22;20230;-80
2022/02/20 05:03:22;;;;;;;3.95;2.95;;;3.50;1.00;;;;;;6269287;22;21074;-80
2022/02/20 05:05:49;;;;;;;5.65;3.15;;;3.60;1.00;;;;;;6271054;22;20263;-80
2022/02/20 05:08:16;;;;;;;5.05;2.83;;;3.60;1.00;;;;;;6269445;22;20211;-80
2022/02/20 05:10:42;;;;;;;4.30;2.92;;;3.60;1.00;;;;;;6273899;22;20940;-79
2022/02/20 05:13:09;;;;;;;3.55;2.88;;;3.60;1.00;;;;;;6272770;22;20193;-79
2022/02/20 05:15:37;;;;;;;3.17;2.78;;;3.60;1.00;;;;;;6271439;22;20270;-79
2022/02/20 05:18:04;;;;;;;3.30;2.40;;;3.60;1.00;;;;;;6271656;22;20283;-79
2022/02/20 05:20:30;;;;;;;4.10;2.67;;;3.60;1.00;;;;;;6268872;22;20197;-80
2022/02/20 05:22:57;;;;;;;3.75;2.60;;;3.60;1.00;;;;;;6269948;22;21143;-80
2022/02/20 05:25:24;;;;;;;4.32;3.20;;;3.60;1.00;;;;;;6269500;22;20208;-80
2022/02/20 05:27:50;;;;;;;3.15;2.60;;;3.60;1.00;;;;;;6271662;22;20196;-80
2022/02/20 05:30:19;;;;;;;3.78;3.17;;;3.70;1.00;;;;;;6268386;22;20192;-81
2022/02/20 05:32:47;;;;;;;3.33;2.80;;;3.70;1.00;;;;;;6271047;22;20198;-79
2022/02/20 05:35:14;;;;;;;3.00;2.63;;;3.70;1.00;;;;;;6270033;22;21476;-80
2022/02/20 05:37:43;;;;;;;3.65;3.35;;;3.70;1.00;;;;;;6270278;22;20200;-79
2022/02/20 05:40:11;;;;;;;3.70;3.35;;;3.70;1.00;;;;;;6268062;22;20204;-80
2022/02/20 05:42:38;;;;;;;7.40;3.45;;;3.80;1.00;;;;;;6271901;22;20991;-80
2022/02/20 05:45:06;;;;;;;5.85;3.67;;;3.70;1.00;;;;;;6269601;22;20196;-79
2022/02/20 05:47:33;;;;;;;6.25;3.78;;;3.70;1.00;;;;;;6266254;22;20204;-79
2022/02/20 05:50:01;;;;;;;3.95;3.45;;;3.70;1.00;;;;;;6270588;22;20193;-80
2022/02/20 05:52:28;;;;;;;4.18;3.65;;;3.70;1.00;;;;;;6270963;22;20196;-81
2022/02/20 05:54:55;;;;;;;3.75;3.20;;;3.70;1.00;;;;;;6271104;22;20192;-80
2022/02/20 05:57:21;;;;;;;4.07;3.67;;;3.70;1.00;;;;;;6270486;22;20425;-79
2022/02/20 05:59:48;;;;;;;3.83;3.15;;;3.70;1.00;;;;;;6269165;22;20200;-80
2022/02/20 06:02:15;;;;;;;3.72;3.33;;;3.70;1.00;;;;;;6269970;22;20196;-80
2022/02/20 06:04:42;;;;;;;3.97;3.28;;;3.70;1.00;;;;;;6270096;22;21242;-79
2022/02/20 06:07:10;;;;;;;3.95;3.58;;;3.70;1.00;;;;;;6271245;22;20196;-79
2022/02/20 06:09:37;;;;;;;5.00;4.22;;;3.70;1.00;;;;;;6273603;22;20971;-79
2022/02/20 06:12:04;;;;;;;4.20;3.80;;;3.70;1.00;;;;;;6282176;22;20196;-78
2022/02/20 06:14:31;;;;;;;4.30;3.83;;;3.80;1.00;;;;;;6280863;22;20192;-79
2022/02/20 06:16:57;;;;;;;4.60;4.20;;;3.80;1.00;;;;;;6272041;22;20197;-80
2022/02/20 06:19:24;;;;;;;4.50;4.10;;;3.80;1.00;;;;;;6274408;22;21259;-79
2022/02/20 06:21:51;;;;;;;4.30;3.88;;;3.80;1.00;;;;;;6272667;22;20210;-79
2022/02/20 06:24:19;;;;;;;4.15;3.67;;;3.80;1.00;;;;;;6274071;22;20354;-80
2022/02/20 06:26:45;;;;;;;4.70;4.10;;;3.80;1.00;;;;;;6253214;22;20584;-79
2022/02/20 06:29:12;;;;;;;4.50;3.90;;;3.80;1.00;;;;;;6288255;22;20307;-80
2022/02/20 06:31:40;;;;;;;4.90;4.20;;;3.80;1.00;;;;;;6297334;22;20188;-80
2022/02/20 06:34:07;;;;;;;4.57;4.18;;;3.80;1.00;;;;;;6293034;22;20199;-82
2022/02/20 06:36:35;;;;;;;4.03;3.63;;;3.80;1.00;;;;;;6277394;22;20200;-82
2022/02/20 06:39:02;;;;;;;5.85;4.10;;;3.80;1.00;;;;;;6275098;22;20195;-82
2022/02/20 06:41:30;;;;;;;4.28;3.85;;;3.80;1.00;;;;;;6271054;22;20210;-80
2022/02/20 06:43:57;;;;;;;5.50;4.03;;;3.90;1.00;;;;;;6245135;22;20197;-81
2022/02/20 06:46:24;;;;;;;4.47;4.07;;;3.90;1.00;;;;;;6272578;22;20192;-80
2022/02/20 06:48:50;;;;;;;4.70;3.83;;;3.90;1.00;;;;;;6272536;22;20189;-80
2022/02/20 06:51:17;;;;;;;4.88;4.38;;;3.90;1.00;;;;;;6273841;22;20188;-83
2022/02/20 06:53:44;;;;;;;5.43;4.40;;;3.90;1.00;;;;;;6274773;22;20331;-82
2022/02/20 06:56:10;;;;;;;5.57;3.97;;;3.90;1.00;;;;;;6279005;22;20981;-81
2022/02/20 06:58:38;;;;;;;4.75;4.25;;;3.90;1.00;;;;;;6306637;22;20243;-81
2022/02/20 07:01:05;;;;;;;5.13;4.63;;;3.90;1.00;;;;;;6304761;22;20189;-82
2022/02/20 07:03:31;;;;;;;4.63;4.22;;;4.00;1.00;;;;;;6294900;22;20192;-82
2022/02/20 07:05:58;;;;;;;5.53;4.32;;;4.00;1.00;;;;;;6272981;22;20697;-83
2022/02/20 07:08:25;;;;;;;5.30;4.80;;;4.00;1.00;;;;;;6271635;22;20325;-83
2022/02/20 07:10:52;;;;;;;4.50;4.10;;;4.10;1.00;;;;;;6272149;22;20198;-81
2022/02/20 07:13:18;;;;;;;4.60;4.15;;;4.10;1.00;;;;;;6273189;22;20199;-82
2022/02/20 07:15:46;;;;;;;5.30;4.80;;;4.20;1.00;;;;;;6270944;22;20188;-83
2022/02/20 07:18:13;;;;;;;6.93;4.60;;;4.20;1.00;;;;;;6272684;22;20708;-82
2022/02/20 07:20:41;;;;;;;6.30;5.70;;;4.10;1.00;;;;;;6269371;22;20211;-82
2022/02/20 07:23:09;;;;;;;4.75;4.32;;;4.10;1.00;;;;;;6271769;22;20192;-82
2022/02/20 07:25:36;;;;;;;5.10;4.53;;;4.10;1.00;;;;;;6270453;22;20192;-82
2022/02/20 07:28:03;;;;;;;4.47;4.07;;;4.20;1.00;;;;;;6270909;22;20964;-82
2022/02/20 07:30:29;;;;;;;5.40;4.80;;;4.10;1.00;;;;;;6297129;22;20272;-83
2022/02/20 07:33:00;;;;;;;5.05;4.60;;;4.10;1.00;;;;;;6305671;22;20211;-83
2022/02/20 07:35:27;;;;;;;4.65;4.25;;;4.10;1.00;;;;;;6306197;22;20165;-83
2022/02/20 07:37:53;;;;;;;4.60;4.20;;;4.20;1.00;;;;;;6307571;22;20199;-79
2022/02/20 07:40:20;;;;;;;7.53;4.13;;;4.20;1.00;;;;;;6308526;22;20227;-83
2022/02/20 07:42:47;;;;;;;7.82;4.40;;;4.20;1.00;;;;;;6291991;22;20204;-81
2022/02/20 07:45:13;;;;;;;4.60;4.20;;;4.20;1.00;;;;;;6275587;22;20242;-79
2022/02/20 07:47:52;;;;;;;4.47;3.67;;;4.30;1.00;;;;;;6277180;22;20193;-80
2022/02/20 07:50:21;;;;;;;5.78;4.18;;;4.30;1.00;;;;;;6290433;22;20188;-80
2022/02/20 07:52:48;;;;;;;4.43;4.03;;;4.30;1.00;;;;;;6258579;22;20184;-80
2022/02/20 07:55:16;;;;;;;5.13;4.45;;;4.40;1.00;;;;;;6274293;22;20188;-79
2022/02/20 07:57:43;;;;;;;4.50;3.78;;;4.40;1.00;;;;;;6270168;22;20194;-78
2022/02/20 08:00:10;;;;;;;5.00;3.75;;;4.40;1.00;;;;;;6270480;22;20664;-80
2022/02/20 08:02:37;;;;;;;4.63;3.90;;;4.40;1.00;;;;;;6279929;22;20208;-79
2022/02/20 08:05:05;;;;;;;4.68;4.28;;;4.40;1.00;;;;;;6280146;22;20196;-81
2022/02/20 08:07:33;;;;;;;4.38;3.97;;;4.50;1.00;;;;;;6273938;22;20205;-80
2022/02/20 08:10:00;;;;;;;6.55;4.43;;;4.50;1.00;;;;;;6273007;22;20188;-80
2022/02/20 08:12:27;;;;;;;5.32;4.15;;;4.60;1.00;;;;;;6271653;22;21137;-80
2022/02/20 08:14:55;;;;;;;4.88;4.25;;;4.70;1.00;;;;;;6275278;22;20184;-80
2022/02/20 08:17:21;;;;;;;4.10;3.55;;;4.80;1.00;;;;;;6273658;22;20306;-80
2022/02/20 08:19:48;;;;;;;4.22;3.83;;;4.90;1.00;;;;;;6273330;22;20184;-80
2022/02/20 08:22:15;;;;;;;4.90;4.32;;;4.90;1.00;;;;;;6275179;22;20219;-80
2022/02/20 08:24:43;;;;;;;4.50;4.05;;;5.00;1.00;;;;;;6271827;22;20188;-80
2022/02/20 08:27:11;;;;;;;4.57;4.10;;;5.00;1.00;;;;;;6273480;22;20673;-80
2022/02/20 08:29:37;;;;;;;3.78;3.20;;;5.00;1.00;;;;;;6272377;22;20185;-80
2022/02/20 08:32:06;;;;;;;6.18;4.90;;;5.00;1.00;;;;;;6273387;22;20192;-80
2022/02/20 08:34:33;;;;;;;3.88;3.58;;;5.10;1.00;;;;;;6270759;22;20190;-80
2022/02/20 08:37:00;;;;;;;5.53;4.68;;;5.20;1.00;;;;;;6273645;22;20196;-80
2022/02/20 08:39:27;;;;;;;5.32;4.82;;;5.20;1.00;;;;;;6273356;22;20247;-79
2022/02/20 08:41:56;;;;;;;6.15;5.30;;;5.30;1.00;;;;;;6269597;22;20212;-80
2022/02/20 08:44:23;;;;;;;4.60;3.83;;;5.40;1.00;;;;;;6269974;22;20195;-80
2022/02/20 08:46:49;;;;;;;5.07;4.07;;;5.40;1.00;;;;;;6268206;22;20196;-80
2022/02/20 08:49:16;;;;;;;4.38;3.97;;;5.40;1.00;;;;;;6270692;22;20185;-81
2022/02/20 08:51:43;;;;;;;5.07;4.10;;;5.50;1.00;;;;;;6269766;22;20196;-80
2022/02/20 08:54:10;;;;;;;4.38;3.78;;;5.50;1.00;;;;;;6271928;22;20196;-80
2022/02/20 08:56:36;;;;;;;3.92;3.55;;;5.60;1.00;;;;;;6244896;22;21428;-80
2022/02/20 08:59:04;;;;;;;4.97;4.47;;;5.70;1.00;;;;;;6288325;22;20319;-78
2022/02/20 09:01:31;;;;;;;3.92;3.53;;;5.80;1.00;;;;;;6305998;22;20203;-79
2022/02/20 09:04:02;;;;;;;4.80;3.70;;;5.80;1.00;;;;;;6306015;22;20231;-78
2022/02/20 09:06:29;;;;;;;5.25;4.30;;;5.90;1.00;;;;;;6287613;22;20187;-80
2022/02/20 09:08:56;;;;;;;4.30;3.90;;;6.10;1.00;;;;;;6287140;22;20296;-79
2022/02/20 09:11:23;;;;;;;5.00;4.22;;;6.50;1.00;;;;;;6282528;22;20311;-79
2022/02/20 09:13:50;;;;;;;4.85;3.97;;;6.60;1.00;;;;;;6268883;22;20254;-80
2022/02/20 09:16:19;;;;;;;4.10;3.65;;;6.60;1.00;;;;;;6273287;22;20196;-80
2022/02/20 09:18:45;;;;;;;4.95;3.90;;;6.50;1.00;;;;;;6268467;22;20231;-80
2022/02/20 09:21:12;;;;;;;4.78;4.28;;;6.40;1.00;;;;;;6269734;22;20208;-80
2022/02/20 09:23:39;;;;;;;4.70;4.10;;;6.20;1.00;;;;;;6268367;22;20195;-79
2022/02/20 09:26:06;;;;;;;5.80;4.63;;;6.00;1.00;;;;;;6269239;22;20287;-79
2022/02/20 09:28:33;;;;;;;4.05;3.65;;;5.80;1.00;;;;;;6244032;22;20196;-79
2022/02/20 09:31:01;;;;;;;5.75;4.95;;;5.80;1.00;;;;;;6268969;22;20196;-80
2022/02/20 09:33:29;;;;;;;5.95;4.45;;;5.70;1.00;;;;;;6268595;22;20267;-80
2022/02/20 09:35:55;;;;;;;5.00;4.60;;;5.70;1.00;;;;;;6239829;22;20192;-80
2022/02/20 09:38:24;;;;;;;4.60;3.97;;;5.70;1.00;;;;;;6277901;22;20199;-80
2022/02/20 09:40:51;;;;;;;5.00;4.30;;;5.80;1.00;;;;;;6273060;22;20708;-80
2022/02/20 09:43:18;;;;;;;6.10;4.40;;;5.90;1.00;;;;;;6267162;22;20193;-79
2022/02/20 09:45:47;;;;;;;5.78;4.15;;;6.00;1.00;;;;;;6267794;22;20188;-79
2022/02/20 09:48:15;;;;;;;5.38;4.43;;;6.00;1.00;;;;;;6266481;22;21108;-79
2022/02/20 09:50:44;;;;;;;4.80;4.28;;;6.10;1.00;;;;;;6265967;22;20196;-80
2022/02/20 09:53:12;;;;;;;6.28;4.50;;;6.10;1.00;;;;;;6265917;22;20196;-80
2022/02/20 09:55:38;;;;;;;5.30;4.35;;;6.20;1.00;;;;;;6264986;22;20236;-81
2022/02/20 09:58:05;;;;;;;5.43;4.70;;;6.10;1.00;;;;;;6266119;22;20275;-79
2022/02/20 10:00:32;;;;;;;5.28;4.25;;;6.10;1.00;;;;;;6268673;22;20299;-80
2022/02/20 10:03:02;;;;;;;6.38;5.55;;;6.10;1.00;;;;;;6269032;22;20341;-79
2022/02/20 10:05:29;;;;;;;6.85;4.70;;;6.30;1.00;;;;;;6267718;22;20195;-80
2022/02/20 10:07:57;;;;;;;6.40;5.40;;;6.30;1.00;;;;;;6269276;22;20200;-80
2022/02/20 10:10:27;;;;;;;5.10;4.47;;;6.20;1.00;;;;;;6268064;22;20228;-82
2022/02/20 10:12:59;;;;;;;5.53;5.00;;;6.20;1.00;;;;;;6272669;22;20200;-80
2022/02/20 10:15:29;;;;;;;7.25;4.90;;;6.30;1.00;;;;;;6274653;22;20189;-80
2022/02/20 10:18:00;;;;;;;6.18;4.80;;;6.20;1.00;;;;;;6298533;22;20220;-80
2022/02/20 10:20:27;;;;;;;7.05;4.90;;;6.30;1.00;;;;;;6305524;22;20195;-79
2022/02/20 10:22:54;;;;;;;6.03;5.43;;;6.30;1.00;;;;;;6281676;22;20207;-79
2022/02/20 10:25:22;;;;;;;6.80;6.03;;;6.30;1.00;;;;;;6306570;22;20180;-79
2022/02/20 10:27:50;;;;;;;6.78;6.07;;;6.40;1.00;;;;;;6299618;22;20192;-79
2022/02/20 10:30:23;;;;;;;6.40;5.10;;;6.40;1.00;;;;;;6271578;22;20360;-80
2022/02/20 10:33:04;;;;;;;6.50;5.68;;;6.50;1.00;;;;;;6278450;22;20188;-80
2022/02/20 10:35:32;;;;;;;7.07;5.93;;;6.60;1.00;;;;;;6276804;22;20197;-80
2022/02/20 10:37:59;;;;;;;7.38;5.78;;;6.60;1.00;;;;;;6253672;22;20201;-81
2022/02/20 10:40:34;;;;;;;7.28;6.57;;;6.70;1.00;;;;;;6276448;22;20196;-82
2022/02/20 10:43:02;;;;;;;7.43;6.15;;;6.80;1.00;;;;;;6277607;22;20195;-84
2022/02/20 10:45:32;;;;;;;7.20;6.00;;;7.00;1.00;;;;;;6273933;22;20283;-81
2022/02/20 10:48:00;;;;;;;6.93;6.22;;;7.20;1.00;;;;;;6279527;22;20203;-82
2022/02/20 10:50:29;;;;;;;8.48;5.93;;;7.20;1.00;;;;;;6275662;22;20237;-82
2022/02/20 10:53:11;;;;;;;6.50;5.80;;;7.20;1.00;;;;;;6275561;22;20184;-81
2022/02/20 10:55:42;;;;;;;7.05;5.95;;;7.30;1.00;;;;;;6279433;22;20189;-83
2022/02/20 10:58:11;;;;;;;7.70;5.88;;;7.40;1.00;;;;;;6278981;22;20287;-83
2022/02/20 11:00:47;;;;;;;6.40;5.35;;;7.50;1.00;;;;;;6279648;22;20779;-83
2022/02/20 11:03:14;;;;;;;6.35;5.35;;;7.40;1.00;;;;;;6275928;22;20192;-84
2022/02/20 11:05:41;;;;;;;6.72;6.10;;;7.50;1.00;;;;;;6279867;22;20219;-83
2022/02/20 11:08:09;;;;;;;6.93;6.03;;;7.50;1.00;;;;;;6288122;22;20223;-83
2022/02/20 11:10:39;;;;;;;7.93;6.35;;;7.60;1.00;;;;;;6288031;22;20194;-83
2022/02/20 11:13:09;;;;;;;8.07;5.82;;;7.70;1.00;;;;;;6282677;22;20200;-83
2022/02/20 11:15:37;;;;;;;6.30;5.65;;;7.60;1.00;;;;;;6289437;22;20185;-82
2022/02/20 11:18:06;;;;;;;6.00;5.40;;;7.50;1.00;;;;;;6276969;22;20247;-83
2022/02/20 11:20:35;;;;;;;7.30;6.60;;;7.50;1.00;;;;;;6275387;22;20202;-84
2022/02/20 11:23:04;;;;;;;8.00;5.93;;;7.50;1.00;;;;;;6277131;22;21418;-83
2022/02/20 11:25:32;;;;;;;6.47;5.88;;;7.40;1.00;;;;;;6292437;22;20190;-83
2022/02/20 11:28:02;;;;;;;6.55;5.60;;;7.40;1.00;;;;;;6306737;22;20197;-82
2022/02/20 11:30:30;;;;;;;8.38;7.53;;;7.20;1.00;;;;;;6307484;22;20188;-82
2022/02/20 11:33:00;;;;;;;7.45;6.50;;;7.20;1.00;;;;;;6308153;22;20180;-84
2022/02/20 11:35:28;;;;;;;7.63;6.65;;;7.10;1.00;;;;;;6298922;22;20188;-82
2022/02/20 11:37:57;;;;;;;6.40;5.80;;;6.90;1.00;;;;;;6288897;22;20293;-82
2022/02/20 11:40:28;;;;;;;7.50;6.80;;;6.90;1.00;;;;;;6252313;22;20235;-81
2022/02/20 11:43:10;;;;;;;9.05;5.47;;;6.90;1.00;;;;;;6290173;22;20215;-82
2022/02/20 11:46:02;;;;;;;6.28;4.95;;;6.70;1.00;;;;;;6292323;22;20200;-82
2022/02/20 11:48:29;;;;;;;7.05;5.68;;;6.60;1.00;;;;;;6303990;22;20236;-82
2022/02/20 11:51:15;;;;;;;5.85;4.90;;;6.50;1.00;;;;;;6303413;22;20172;-82
2022/02/20 11:53:42;;;;;;;7.63;6.05;;;6.40;1.00;;;;;;6279683;22;20191;-83
2022/02/20 11:56:12;;;;;;;7.32;5.65;;;6.10;1.00;;;;;;6307310;22;20173;-81
2022/02/20 11:58:40;;;;;;;7.32;5.70;;;5.90;1.00;;;;;;6306071;22;20192;-81
2022/02/20 12:01:16;;;;;;;9.63;7.82;;;5.80;1.00;;;;;;6306354;22;20173;-82
2022/02/20 12:04:11;;;;;;;5.45;4.00;;;5.90;1.00;;;;;;6305072;22;20194;-82
2022/02/20 12:06:41;;;;;;;6.47;4.85;;;5.90;1.00;;;;;;6299788;22;20283;-82
2022/02/20 12:09:28;;;;;;;6.28;5.45;;;5.70;1.00;;;;;;6273909;22;20191;-83
2022/02/20 12:11:55;;;;;;;6.80;4.70;;;5.60;1.00;;;;;;6274042;22;20531;-83
2022/02/20 12:14:25;;;;;;;7.97;5.00;;;5.50;1.00;;;;;;6274956;22;20192;-83
2022/02/20 12:16:57;;;;;;;5.45;4.90;;;5.50;1.00;;;;;;6281568;22;20198;-83
2022/02/20 12:19:26;;;;;;;7.63;5.13;;;5.40;1.00;;;;;;6279563;22;20177;-83
2022/02/20 12:22:05;;;;;;;7.25;5.22;;;5.30;1.00;;;;;;6270020;22;20683;-83
2022/02/20 12:24:48;;;;;;;7.10;3.83;;;5.30;1.00;;;;;;6250397;22;20315;-85
2022/02/20 12:27:17;;;;;;;5.13;4.10;;;5.20;1.00;;;;;;6290990;22;20181;-83
2022/02/20 12:29:49;;;;;;;4.85;4.35;;;5.20;1.00;;;;;;6293344;22;20200;-83
2022/02/20 12:32:19;;;;;;;4.63;3.72;;;5.20;1.00;;;;;;6285638;22;20651;-82
2022/02/20 12:34:55;;;;;;;6.47;4.05;;;5.20;1.00;;;;;;6261408;22;20191;-83
2022/02/20 12:37:26;;;;;;;9.93;6.88;;;5.20;1.00;;;;;;6275062;22;20196;-84
2022/02/20 12:39:55;;;;;;;6.55;4.78;;;5.20;1.00;;;;;;6276522;22;20194;-84
2022/02/20 12:42:22;;;;;;;6.15;4.70;;;5.10;1.00;;;;;;6280583;22;20200;-83
2022/02/20 12:44:49;;;;;;;7.22;4.93;;;5.00;1.00;;;;;;6278875;22;20188;-82
2022/02/20 12:47:18;;;;;;;6.65;5.05;;;5.00;1.00;;;;;;6277352;22;20193;-83
2022/02/20 12:49:52;;;;;;;5.22;4.05;;;4.90;1.00;;;;;;6291516;22;20244;-83
2022/02/20 12:52:19;;;;;;;5.65;5.00;;;4.80;1.00;;;;;;6279254;22;20242;-83
2022/02/20 12:54:48;;;;;;;5.70;4.45;;;4.80;1.00;;;;;;6273664;22;20244;-83
2022/02/20 12:57:19;;;;;;;5.60;4.70;;;4.80;1.00;;;;;;6274158;22;20196;-83
2022/02/20 12:59:56;;;;;;;8.25;5.65;;;4.80;1.00;;;;;;6276759;22;20208;-83
2022/02/20 13:02:36;;;;;;;6.95;5.32;;;4.80;1.00;;;;;;6271787;22;20216;-82
2022/02/20 13:05:05;;;;;;;5.93;4.95;;;4.80;1.00;;;;;;6274749;22;20179;-81
2022/02/20 13:07:38;;;;;;;12.45;5.65;;;4.80;1.00;;;;;;6272655;22;20203;-84
2022/02/20 13:10:05;;;;;;;7.45;5.32;;;4.90;1.00;;;;;;6271276;22;20975;-83
2022/02/20 13:12:32;;;;;;;7.00;4.95;;;4.90;1.00;;;;;;6279599;22;20223;-83